createdAt,value
2024-05-09T00:00:54.959Z,99968.06
2024-05-09T00:02:22.660Z,99966.06
2024-05-09T00:03:25.730Z,99965.44
2024-05-09T00:04:28.204Z,99960.38
2024-05-09T00:05:30.743Z,99960.97
2024-05-09T00:06:32.990Z,99952.13
2024-05-09T00:07:36.862Z,99953.28
2024-05-09T00:08:42.725Z,99950.69
2024-05-09T00:09:46.814Z,99951.94
2024-05-09T00:10:50.571Z,99955.75
2024-05-09T00:11:54.604Z,99957.28
2024-05-09T00:12:56.873Z,99952.75
2024-05-09T00:14:03.057Z,99963.38
2024-05-09T00:15:05.498Z,99947.91
2024-05-09T00:16:09.544Z,99958.16
2024-05-09T00:17:11.858Z,99955.47
2024-05-09T00:18:18.137Z,99961.38
2024-05-09T00:19:20.857Z,99962.56
2024-05-09T00:20:42.719Z,99970.47
2024-05-09T00:21:45.784Z,99957.25
2024-05-09T00:22:48.204Z,99950.22
2024-05-09T00:23:50.524Z,99953.28
2024-05-09T00:24:59.344Z,99953.69
2024-05-09T00:26:04.683Z,99950.84
2024-05-09T00:27:07.605Z,99950.47
2024-05-09T00:28:13.430Z,99955.69
2024-05-09T00:29:16.221Z,99955.69
2024-05-09T00:30:31.025Z,99950.03
2024-05-09T00:31:38.645Z,99948.22
2024-05-09T00:32:41.113Z,99951.66
2024-05-09T00:33:44.816Z,99952.63
2024-05-09T00:34:46.972Z,99952.47
2024-05-09T00:35:49.293Z,99952.47
2024-05-09T00:36:51.269Z,99946.00
2024-05-09T00:37:55.178Z,99954.44
2024-05-09T00:38:57.178Z,99947.41
2024-05-09T00:40:31.207Z,99950.75
2024-05-09T00:41:40.860Z,99949.00
2024-05-09T00:42:46.363Z,99950.94
2024-05-09T00:43:48.409Z,99949.97
2024-05-09T00:44:50.744Z,99949.34
2024-05-09T00:45:55.796Z,99940.72
2024-05-09T00:46:58.711Z,99958.97
2024-05-09T00:48:06.154Z,99944.66
2024-05-09T00:49:11.670Z,99955.56
2024-05-09T00:50:19.428Z,99948.53
2024-05-09T00:51:28.404Z,99949.53
2024-05-09T00:52:31.965Z,99953.75
2024-05-09T00:53:53.526Z,99950.34
2024-05-09T00:54:58.183Z,99941.91
2024-05-09T00:56:00.598Z,99946.31
2024-05-09T00:57:05.787Z,99950.25
2024-05-09T00:58:11.336Z,99947.84
2024-05-09T00:59:15.448Z,99947.03
2024-05-09T01:00:26.601Z,99949.66
2024-05-09T01:01:40.362Z,99951.44
2024-05-09T01:02:45.838Z,99938.94
2024-05-09T01:03:51.181Z,99945.59
2024-05-09T01:04:54.675Z,99940.19
2024-05-09T01:06:01.395Z,99946.97
2024-05-09T01:07:04.671Z,99945.97
2024-05-09T01:08:09.457Z,99938.69
2024-05-09T01:09:14.903Z,99948.56
2024-05-09T01:10:23.878Z,99938.16
2024-05-09T01:11:40.768Z,99945.16
2024-05-09T01:12:46.179Z,99949.38
2024-05-09T01:13:51.628Z,99942.38
2024-05-09T01:14:54.642Z,99940.56
2024-05-09T01:15:57.164Z,99938.16
2024-05-09T01:17:00.764Z,99950.19
2024-05-09T01:18:08.960Z,99943.97
2024-05-09T01:19:29.716Z,99942.72
2024-05-09T01:20:40.346Z,99940.75
2024-05-09T01:21:45.441Z,99939.16
2024-05-09T01:22:53.239Z,99929.50
2024-05-09T01:23:55.774Z,99942.56
2024-05-09T01:24:57.996Z,99933.94
2024-05-09T01:26:00.411Z,99935.28
2024-05-09T01:27:02.992Z,99945.69
2024-05-09T01:28:05.685Z,99930.06
2024-05-09T01:29:08.090Z,99932.66
2024-05-09T01:30:17.008Z,99935.28
2024-05-09T01:31:24.642Z,99925.66
2024-05-09T01:32:27.134Z,99931.47
2024-05-09T01:33:31.418Z,99919.88
2024-05-09T01:34:35.907Z,99931.66
2024-05-09T01:35:42.792Z,99922.69
2024-05-09T01:36:45.225Z,99928.25
2024-05-09T01:37:48.035Z,99920.44
2024-05-09T01:38:52.872Z,99925.66
2024-05-09T01:39:58.700Z,99928.00
2024-05-09T01:41:01.090Z,99935.00
2024-05-09T01:42:03.750Z,99963.69
2024-05-09T01:43:11.939Z,99937.25
2024-05-09T01:44:16.659Z,99931.59
2024-05-09T01:45:18.923Z,99942.47
2024-05-09T01:46:21.160Z,99934.66
2024-05-09T01:47:23.618Z,99944.63
2024-05-09T01:48:26.067Z,99937.81
2024-05-09T01:49:28.511Z,99935.38
2024-05-09T01:50:37.689Z,99939.41
2024-05-09T01:51:43.413Z,99939.78
2024-05-09T01:52:47.476Z,99935.94
2024-05-09T01:53:53.552Z,99949.56
2024-05-09T01:54:57.460Z,99944.56
2024-05-09T01:56:00.138Z,99945.94
2024-05-09T01:57:02.465Z,99934.50
2024-05-09T01:58:10.648Z,99935.66
2024-05-09T01:59:13.264Z,99935.84
2024-05-09T02:00:22.229Z,99939.25
2024-05-09T02:01:56.097Z,99945.84
2024-05-09T02:03:02.248Z,99938.19
2024-05-09T02:04:06.126Z,99947.88
2024-05-09T02:05:08.420Z,99939.25
2024-05-09T02:06:12.734Z,99932.81
2024-05-09T02:07:15.558Z,99940.44
2024-05-09T02:08:22.128Z,99938.44
2024-05-09T02:09:25.939Z,99937.03
2024-05-09T02:10:32.506Z,99948.44
2024-05-09T02:11:47.562Z,99937.22
2024-05-09T02:13:17.500Z,99938.03
2024-05-09T02:14:22.696Z,99936.56
2024-05-09T02:15:24.982Z,99934.97
2024-05-09T02:16:28.675Z,99934.97
2024-05-09T02:17:31.307Z,99937.75
2024-05-09T02:18:33.500Z,99932.34
2024-05-09T02:19:35.787Z,99927.31
2024-05-09T02:20:44.382Z,99941.34
2024-05-09T02:21:47.294Z,99939.38
2024-05-09T02:22:50.344Z,99930.13
2024-05-09T02:23:52.914Z,99935.16
2024-05-09T02:24:55.118Z,99926.53
2024-05-09T02:25:57.498Z,99936.75
2024-05-09T02:27:25.341Z,99946.00
2024-05-09T02:28:27.660Z,99935.16
2024-05-09T02:29:34.267Z,99935.34
2024-05-09T02:30:42.690Z,99936.94
2024-05-09T02:31:45.189Z,99934.34
2024-05-09T02:32:48.759Z,99941.34
2024-05-09T02:33:52.944Z,99933.34
2024-05-09T02:34:55.430Z,99946.56
2024-05-09T02:35:57.687Z,99931.28
2024-05-09T02:37:25.142Z,99934.53
2024-05-09T02:38:27.235Z,99945.31
2024-05-09T02:39:29.539Z,99935.06
2024-05-09T02:40:37.538Z,99939.09
2024-05-09T02:41:43.741Z,99935.69
2024-05-09T02:43:11.788Z,99935.50
2024-05-09T02:44:14.915Z,99932.06
2024-05-09T02:45:23.794Z,99945.50
2024-05-09T02:46:26.801Z,99940.28
2024-05-09T02:47:29.356Z,99936.06
2024-05-09T02:48:31.822Z,99939.47
2024-05-09T02:49:36.808Z,99934.25
2024-05-09T02:50:54.451Z,99936.22
2024-05-09T02:52:21.232Z,99940.63
2024-05-09T02:53:23.710Z,99933.78
2024-05-09T02:55:55.931Z,99939.66
2024-05-09T02:57:00.474Z,99925.97
2024-05-09T02:58:02.812Z,99945.22
2024-05-09T02:59:04.952Z,99936.66
2024-05-09T03:00:18.417Z,99940.28
2024-05-09T03:01:24.980Z,99952.69
2024-05-09T03:02:35.519Z,99936.59
2024-05-09T03:03:43.676Z,99932.44
2024-05-09T03:04:46.594Z,99940.91
2024-05-09T03:05:50.797Z,99934.88
2024-05-09T03:06:53.036Z,99925.63
2024-05-09T03:07:55.264Z,99930.03
2024-05-09T03:09:22.691Z,99935.25
2024-05-09T03:10:29.049Z,99939.19
2024-05-09T03:11:41.202Z,99930.19
2024-05-09T03:12:45.167Z,99940.63
2024-05-09T03:13:49.740Z,99933.78
2024-05-09T03:14:54.071Z,99944.69
2024-05-09T03:15:59.050Z,99947.47
2024-05-09T03:17:03.245Z,99940.63
2024-05-09T03:18:05.928Z,99939.81
2024-05-09T03:19:12.729Z,99938.81
2024-05-09T03:20:20.727Z,99949.25
2024-05-09T03:21:27.336Z,99947.63
2024-05-09T03:22:29.907Z,99943.50
2024-05-09T03:23:33.259Z,99940.16
2024-05-09T03:24:35.811Z,99933.69
2024-05-09T03:25:37.899Z,99936.91
2024-05-09T03:26:40.538Z,99947.78
2024-05-09T03:27:43.716Z,99935.41
2024-05-09T03:28:45.986Z,99945.53
2024-05-09T03:29:52.461Z,99932.34
2024-05-09T03:30:56.171Z,99930.41
2024-05-09T03:31:59.831Z,99940.84
2024-05-09T03:33:02.238Z,99938.13
2024-05-09T03:34:05.983Z,99935.63
2024-05-09T03:35:35.358Z,99939.84
2024-05-09T03:36:42.034Z,99938.44
2024-05-09T03:38:04.628Z,99941.22
2024-05-09T03:39:11.676Z,99943.16
2024-05-09T03:40:23.802Z,99948.00
2024-05-09T03:41:28.880Z,99950.34
2024-05-09T03:42:31.162Z,99948.22
2024-05-09T03:43:35.909Z,99947.63
2024-05-09T03:44:38.139Z,99955.56
2024-05-09T03:46:00.615Z,99952.59
2024-05-09T03:47:04.493Z,99947.16
2024-05-09T03:48:07.319Z,99950.19
2024-05-09T03:49:13.675Z,99951.72
2024-05-09T03:50:33.729Z,99960.63
2024-05-09T03:51:38.140Z,99953.41
2024-05-09T03:52:54.937Z,99957.06
2024-05-09T03:53:57.724Z,99961.91
2024-05-09T03:55:05.928Z,99961.69
2024-05-09T03:56:08.682Z,99953.13
2024-05-09T03:57:11.104Z,99959.53
2024-05-09T03:58:14.146Z,99956.59
2024-05-09T03:59:17.215Z,99954.50
2024-05-09T04:00:30.029Z,99953.97
2024-05-09T04:01:37.654Z,99963.53
2024-05-09T04:02:42.448Z,99963.44
2024-05-09T04:03:45.146Z,99968.41
2024-05-09T04:04:48.315Z,99961.06
2024-05-09T04:05:50.947Z,99971.38
2024-05-09T04:06:53.385Z,99957.44
2024-05-09T04:07:55.620Z,99961.84
2024-05-09T04:09:03.459Z,99956.13
2024-05-09T04:10:11.142Z,99955.38
2024-05-09T04:11:19.279Z,99954.69
2024-05-09T04:12:21.617Z,99955.44
2024-05-09T04:13:23.910Z,99950.41
2024-05-09T04:14:34.160Z,99962.66
2024-05-09T04:16:05.818Z,99965.19
2024-05-09T04:17:11.733Z,99959.97
2024-05-09T04:18:16.440Z,99960.97
2024-05-09T04:19:23.179Z,99965.59
2024-05-09T04:20:36.726Z,99961.38
2024-05-09T04:21:49.642Z,99956.63
2024-05-09T04:22:58.715Z,99963.44
2024-05-09T04:24:00.933Z,99970.28
2024-05-09T04:25:03.583Z,99963.53
2024-05-09T04:26:07.971Z,99955.31
2024-05-09T04:27:10.282Z,99967.63
2024-05-09T04:28:15.681Z,99966.47
2024-05-09T04:29:20.006Z,99967.47
2024-05-09T04:30:34.683Z,99958.19
2024-05-09T04:31:42.630Z,99959.19
2024-05-09T04:32:45.243Z,99959.66
2024-05-09T04:33:50.127Z,99962.06
2024-05-09T04:34:56.686Z,99972.59
2024-05-09T04:36:03.958Z,99960.88
2024-05-09T04:37:06.010Z,99965.22
2024-05-09T04:38:08.635Z,99973.84
2024-05-09T04:39:10.932Z,99965.69
2024-05-09T04:40:24.217Z,99967.06
2024-05-09T04:41:58.413Z,99963.09
2024-05-09T04:43:01.195Z,99975.84
2024-05-09T04:44:03.753Z,99961.50
2024-05-09T04:45:06.328Z,99962.19
2024-05-09T04:46:08.557Z,99958.81
2024-05-09T04:47:11.770Z,99966.03
2024-05-09T04:48:15.224Z,99974.66
2024-05-09T04:49:17.883Z,99965.47
2024-05-09T04:50:29.330Z,99970.97
2024-05-09T04:51:37.896Z,99972.41
2024-05-09T04:52:40.215Z,99977.22
2024-05-09T04:53:42.880Z,99974.59
2024-05-09T04:54:46.419Z,99978.78
2024-05-09T04:55:49.386Z,99989.53
2024-05-09T04:56:51.662Z,99981.25
2024-05-09T04:57:53.862Z,99975.13
2024-05-09T04:58:57.741Z,99973.69
2024-05-09T05:00:01.323Z,99980.28
2024-05-09T05:01:28.525Z,99986.06
2024-05-09T05:02:31.828Z,99979.81
2024-05-09T05:03:36.970Z,99974.31
2024-05-09T05:04:39.436Z,99986.91
2024-05-09T05:05:43.392Z,99979.19
2024-05-09T05:06:48.455Z,99979.97
2024-05-09T05:07:50.891Z,99979.56
2024-05-09T05:09:01.868Z,99999.34
2024-05-09T05:10:05.838Z,99981.69
2024-05-09T05:11:14.106Z,99983.50
2024-05-09T05:12:36.235Z,99987.00
2024-05-09T05:13:41.445Z,99979.19
2024-05-09T05:14:45.772Z,99991.41
2024-05-09T05:15:57.390Z,99981.59
2024-05-09T05:17:26.616Z,99982.38
2024-05-09T05:18:29.426Z,99980.00
2024-05-09T05:19:32.125Z,99983.50
2024-05-09T05:20:38.061Z,99989.47
2024-05-09T05:21:44.662Z,99980.56
2024-05-09T05:22:47.841Z,99990.44
2024-05-09T05:23:53.774Z,99984.22
2024-05-09T05:24:56.079Z,99983.97
2024-05-09T05:25:58.084Z,99978.09
2024-05-09T05:27:03.812Z,99981.59
2024-05-09T05:28:06.784Z,99993.88
2024-05-09T05:29:09.121Z,100005.91
2024-05-09T05:30:17.639Z,99990.66
2024-05-09T05:31:23.571Z,99999.34
2024-05-09T05:32:26.941Z,99999.06
2024-05-09T05:33:41.056Z,99998.22
2024-05-09T05:34:43.184Z,99997.09
2024-05-09T05:35:46.759Z,100011.72
2024-05-09T05:36:49.356Z,99996.88
2024-05-09T05:37:52.248Z,100005.47
2024-05-09T05:38:55.325Z,100004.50
2024-05-09T05:39:58.446Z,100006.91
2024-05-09T05:41:00.802Z,99998.38
2024-05-09T05:42:06.661Z,100015.34
2024-05-09T05:43:15.925Z,100001.00
2024-05-09T05:44:18.946Z,100005.47
2024-05-09T05:45:21.407Z,100006.81
2024-05-09T05:46:23.622Z,100012.56
2024-05-09T05:47:26.049Z,100002.38
2024-05-09T05:48:33.526Z,100007.97
2024-05-09T05:49:35.973Z,100010.69
2024-05-09T05:50:38.910Z,100008.56
2024-05-09T05:51:41.522Z,100003.09
2024-05-09T05:52:43.798Z,100013.75
2024-05-09T05:53:46.253Z,100000.38
2024-05-09T05:54:48.540Z,100020.75
2024-05-09T05:55:52.589Z,100002.22
2024-05-09T05:56:56.559Z,99998.56
2024-05-09T05:58:00.836Z,100007.44
2024-05-09T05:59:03.133Z,100004.72
2024-05-09T06:00:17.989Z,100002.25
2024-05-09T06:01:28.034Z,100002.50
2024-05-09T06:02:31.548Z,100001.09
2024-05-09T06:03:34.114Z,100002.97
2024-05-09T06:04:36.552Z,99995.38
2024-05-09T06:05:39.018Z,99997.69
2024-05-09T06:06:43.577Z,99999.19
2024-05-09T06:07:48.662Z,100005.38
2024-05-09T06:08:51.397Z,100001.75
2024-05-09T06:09:54.615Z,99990.31
2024-05-09T06:10:57.147Z,100006.31
2024-05-09T06:11:59.553Z,100018.50
2024-05-09T06:13:01.800Z,99989.47
2024-05-09T06:14:04.434Z,100005.97
2024-05-09T06:15:06.961Z,99997.53
2024-05-09T06:16:09.473Z,100000.59
2024-05-09T06:17:12.079Z,100002.50
2024-05-09T06:18:17.069Z,99996.81
2024-05-09T06:19:19.574Z,100002.78
2024-05-09T06:20:27.836Z,100002.50
2024-05-09T06:21:36.981Z,100004.63
2024-05-09T06:22:39.258Z,99993.44
2024-05-09T06:23:48.936Z,100005.06
2024-05-09T06:24:51.742Z,100008.06
2024-05-09T06:25:54.084Z,100003.78
2024-05-09T06:26:56.373Z,100004.78
2024-05-09T06:28:02.531Z,100011.38
2024-05-09T06:29:05.837Z,100004.47
2024-05-09T06:30:14.451Z,100007.94
2024-05-09T06:31:23.315Z,100030.31
2024-05-09T06:32:25.675Z,100018.38
2024-05-09T06:33:28.406Z,100015.69
2024-05-09T06:34:35.328Z,100022.81
2024-05-09T06:35:38.084Z,100016.88
2024-05-09T06:36:40.450Z,100026.41
2024-05-09T06:37:42.754Z,100018.78
2024-05-09T06:38:49.929Z,100029.09
2024-05-09T06:39:53.109Z,100019.16
2024-05-09T06:40:55.414Z,100023.16
2024-05-09T06:41:57.897Z,100020.19
2024-05-09T06:43:00.169Z,100024.38
2024-05-09T06:44:05.369Z,100028.47
2024-05-09T06:45:11.104Z,100031.69
2024-05-09T06:46:13.303Z,100018.47
2024-05-09T06:47:15.757Z,100028.91
2024-05-09T06:48:20.213Z,100031.97
2024-05-09T06:49:22.940Z,100025.38
2024-05-09T06:50:28.371Z,100033.16
2024-05-09T06:51:36.668Z,100035.47
2024-05-09T06:52:38.904Z,100028.16
2024-05-09T06:53:41.299Z,100031.75
2024-05-09T06:54:44.929Z,100031.31
2024-05-09T06:55:51.813Z,100028.69
2024-05-09T06:56:53.846Z,100035.34
2024-05-09T06:57:56.046Z,100033.72
2024-05-09T06:58:58.562Z,100038.53
2024-05-09T07:00:01.103Z,100034.44
2024-05-09T07:01:05.325Z,100039.66
2024-05-09T07:02:07.495Z,100037.59
2024-05-09T07:04:13.531Z,100032.16
2024-05-09T07:05:16.035Z,100047.72
2024-05-09T07:06:18.504Z,100036.28
2024-05-09T07:07:20.869Z,100050.00
2024-05-09T07:08:23.229Z,100041.81
2024-05-09T07:09:25.630Z,100045.69
2024-05-09T07:10:32.930Z,100047.84
2024-05-09T07:11:37.982Z,100048.94
2024-05-09T07:12:40.336Z,100039.34
2024-05-09T07:13:42.876Z,100056.28
2024-05-09T07:14:45.197Z,100055.34
2024-05-09T07:15:50.123Z,100065.25
2024-05-09T07:16:54.079Z,100049.75
2024-05-09T07:17:57.992Z,100064.63
2024-05-09T07:19:00.202Z,100048.84
2024-05-09T07:20:08.995Z,100050.09
2024-05-09T07:21:11.712Z,100059.75
2024-05-09T07:22:14.822Z,100057.47
2024-05-09T07:23:17.578Z,100055.59
2024-05-09T07:24:20.157Z,100055.41
2024-05-09T07:25:22.774Z,100059.41
2024-05-09T07:26:25.173Z,100066.41
2024-05-09T07:27:30.132Z,100053.94
2024-05-09T07:28:33.439Z,100064.03
2024-05-09T07:29:38.540Z,100049.06
2024-05-09T07:30:43.671Z,100047.69
2024-05-09T07:31:46.891Z,100052.47
2024-05-09T07:32:52.091Z,100049.75
2024-05-09T07:33:54.497Z,100049.72
2024-05-09T07:34:56.901Z,100053.63
2024-05-09T07:35:59.422Z,100051.13
2024-05-09T07:37:01.804Z,100050.41
2024-05-09T07:38:04.141Z,100054.63
2024-05-09T07:39:07.554Z,100048.13
2024-05-09T07:40:14.740Z,100057.38
2024-05-09T07:41:23.289Z,100048.00
2024-05-09T07:42:25.674Z,100041.75
2024-05-09T07:43:28.061Z,100050.78
2024-05-09T07:44:32.024Z,100049.44
2024-05-09T07:47:44.967Z,100047.28
2024-05-09T07:50:54.071Z,100040.47
2024-05-09T07:53:22.015Z,100042.72
2024-05-09T07:53:38.748Z,100046.97
2024-05-09T07:54:44.293Z,100043.78
2024-05-09T07:55:47.597Z,100041.28
2024-05-09T07:56:50.833Z,100055.03
2024-05-09T07:57:53.336Z,100046.47
2024-05-09T07:58:55.906Z,100046.25
2024-05-09T08:00:29.770Z,100046.47
2024-05-09T08:01:34.199Z,100041.78
2024-05-09T08:02:36.514Z,100044.19
2024-05-09T08:03:39.614Z,100038.81
2024-05-09T08:04:42.273Z,100037.59
2024-05-09T08:05:44.705Z,100044.97
2024-05-09T08:06:48.948Z,100037.25
2024-05-09T08:07:54.180Z,100047.78
2024-05-09T08:09:00.852Z,100044.50
2024-05-09T08:10:08.137Z,100043.94
2024-05-09T08:11:19.385Z,100046.25
2024-05-09T08:12:21.688Z,100048.53
2024-05-09T08:13:27.664Z,100048.34
2024-05-09T08:14:32.634Z,100041.34
2024-05-09T08:15:36.731Z,100044.78
2024-05-09T08:16:43.703Z,100043.81
2024-05-09T08:17:47.854Z,100045.31
2024-05-09T08:18:50.633Z,100043.22
2024-05-09T08:19:55.413Z,100042.75
2024-05-09T08:20:57.859Z,100037.84
2024-05-09T08:22:05.817Z,100048.19
2024-05-09T08:23:08.083Z,100046.31
2024-05-09T08:24:10.454Z,100042.09
2024-05-09T08:25:14.581Z,100032.72
2024-05-09T08:26:17.669Z,100039.63
2024-05-09T08:27:19.968Z,100037.94
2024-05-09T08:28:47.880Z,100048.38
2024-05-09T08:29:56.043Z,100048.03
2024-05-09T08:30:58.831Z,100058.94
2024-05-09T08:32:01.817Z,100048.03
2024-05-09T08:33:06.471Z,100052.97
2024-05-09T08:34:10.754Z,100047.22
2024-05-09T08:35:17.838Z,100046.88
2024-05-09T08:36:20.191Z,100040.69
2024-05-09T08:37:26.000Z,100064.19
2024-05-09T08:38:32.175Z,100051.78
2024-05-09T08:39:34.536Z,100049.63
2024-05-09T08:40:38.095Z,100042.75
2024-05-09T08:42:06.916Z,100054.63
2024-05-09T08:43:14.498Z,100035.53
2024-05-09T08:44:19.023Z,100045.44
2024-05-09T08:45:25.338Z,100061.72
2024-05-09T08:46:30.290Z,100050.09
2024-05-09T08:47:37.334Z,100063.84
2024-05-09T08:48:44.597Z,100065.25
2024-05-09T08:49:50.595Z,100072.47
2024-05-09T08:50:53.017Z,100070.81
2024-05-09T08:51:58.782Z,100058.25
2024-05-09T08:53:01.269Z,100058.03
2024-05-09T08:54:07.860Z,100058.81
2024-05-09T08:55:14.811Z,100055.88
2024-05-09T08:56:20.339Z,100055.41
2024-05-09T08:57:25.097Z,100069.00
2024-05-09T08:58:38.239Z,100070.84
2024-05-09T08:59:49.764Z,100061.78
2024-05-09T09:00:55.629Z,100078.41
2024-05-09T09:02:12.787Z,100071.31
2024-05-09T09:03:19.953Z,100068.44
2024-05-09T09:05:20.186Z,100069.59
2024-05-09T09:06:24.567Z,100068.22
2024-05-09T09:07:32.420Z,100066.16
2024-05-09T09:08:41.464Z,100066.06
2024-05-09T09:09:46.838Z,100067.56
2024-05-09T09:10:59.182Z,100068.94
2024-05-09T09:12:08.656Z,100075.91
2024-05-09T09:13:14.831Z,100072.13
2024-05-09T09:14:17.150Z,100071.66
2024-05-09T09:15:20.494Z,100076.38
2024-05-09T09:16:35.457Z,100076.09
2024-05-09T09:17:40.965Z,100071.88
2024-05-09T09:18:45.235Z,100083.94
2024-05-09T09:19:47.659Z,100075.31
2024-05-09T09:20:50.418Z,100067.00
2024-05-09T09:21:52.740Z,100074.16
2024-05-09T09:22:57.657Z,100064.34
2024-05-09T09:23:59.992Z,100076.91
2024-05-09T09:25:10.205Z,100076.22
2024-05-09T09:26:15.789Z,100074.28
2024-05-09T09:27:18.527Z,100084.84
2024-05-09T09:28:21.983Z,100073.97
2024-05-09T09:29:49.333Z,100077.94
2024-05-09T09:31:00.352Z,100074.16
2024-05-09T09:32:04.282Z,100075.09
2024-05-09T09:33:10.763Z,100067.31
2024-05-09T09:34:13.862Z,100072.13
2024-05-09T09:35:16.391Z,100072.19
2024-05-09T09:36:19.466Z,100072.47
2024-05-09T09:37:33.780Z,100065.34
2024-05-09T09:38:38.547Z,100056.75
2024-05-09T09:39:43.755Z,100074.06
2024-05-09T09:40:53.503Z,100057.19
2024-05-09T09:41:59.729Z,100061.34
2024-05-09T09:43:05.942Z,100065.34
2024-05-09T09:44:11.141Z,100059.38
2024-05-09T09:45:16.399Z,100066.91
2024-05-09T09:46:45.076Z,100071.69
2024-05-09T09:47:58.306Z,100060.50
2024-05-09T09:49:01.635Z,100059.72
2024-05-09T09:50:11.831Z,100048.84
2024-05-09T09:51:20.227Z,100056.84
2024-05-09T09:52:23.755Z,100067.53
2024-05-09T09:53:32.203Z,100052.97
2024-05-09T09:54:34.884Z,100044.22
2024-05-09T09:55:40.633Z,100049.97
2024-05-09T09:56:44.510Z,100050.81
2024-05-09T09:57:48.313Z,100057.22
2024-05-09T09:59:00.356Z,100048.59
2024-05-09T10:00:04.305Z,100046.91
2024-05-09T10:01:16.376Z,100053.22
2024-05-09T10:02:19.019Z,100046.09
2024-05-09T10:03:21.752Z,100051.69
2024-05-09T10:04:48.770Z,100055.28
2024-05-09T10:05:53.058Z,100049.53
2024-05-09T10:07:04.365Z,100056.09
2024-05-09T10:08:09.447Z,100054.34
2024-05-09T10:09:36.453Z,100054.81
2024-05-09T10:10:38.978Z,100047.56
2024-05-09T10:11:49.240Z,100049.06
2024-05-09T10:13:03.823Z,100053.97
2024-05-09T10:14:07.406Z,100056.88
2024-05-09T10:15:10.142Z,100052.84
2024-05-09T10:16:19.011Z,100058.03
2024-05-09T10:17:24.518Z,100055.16
2024-05-09T10:18:37.043Z,100058.03
2024-05-09T10:19:47.083Z,100058.69
2024-05-09T10:20:53.346Z,100056.41
2024-05-09T10:22:05.717Z,100048.38
2024-05-09T10:23:26.985Z,100052.63
2024-05-09T10:24:51.396Z,100038.75
2024-05-09T10:26:00.430Z,100043.44
2024-05-09T10:27:05.653Z,100051.34
2024-05-09T10:28:14.766Z,100039.31
2024-05-09T10:29:18.505Z,100042.75
2024-05-09T10:30:29.610Z,100041.50
2024-05-09T10:31:46.459Z,100044.50
2024-05-09T10:32:52.562Z,100047.09
2024-05-09T10:34:20.730Z,100049.28
2024-05-09T10:35:25.505Z,100051.47
2024-05-09T10:36:28.748Z,100043.56
2024-05-09T10:37:32.054Z,100043.09
2024-05-09T10:38:35.412Z,100043.00
2024-05-09T10:39:38.469Z,100055.16
2024-05-09T10:40:50.238Z,100041.16
2024-05-09T10:41:55.666Z,100045.84
2024-05-09T10:43:05.617Z,100039.66
2024-05-09T10:44:16.085Z,100059.84
2024-05-09T10:45:18.488Z,100039.44
2024-05-09T10:46:21.226Z,100038.25
2024-05-09T10:47:25.464Z,100040.22
2024-05-09T10:48:29.918Z,100044.09
2024-05-09T10:49:39.911Z,100027.47
2024-05-09T10:50:45.851Z,100038.16
2024-05-09T10:51:48.489Z,100047.22
2024-05-09T10:52:54.393Z,100025.41
2024-05-09T10:53:57.933Z,100034.81
2024-05-09T10:55:01.648Z,100030.47
2024-05-09T10:56:08.459Z,100021.75
2024-05-09T10:57:11.565Z,100019.09
2024-05-09T10:58:17.115Z,100019.09
2024-05-09T10:59:19.756Z,100017.38
2024-05-09T11:00:27.805Z,100012.34
2024-05-09T11:01:36.372Z,100018.16
2024-05-09T11:02:40.161Z,100038.25
2024-05-09T11:03:50.426Z,100032.28
2024-05-09T11:04:53.931Z,100022.97
2024-05-09T11:05:56.611Z,100023.13
2024-05-09T11:07:05.478Z,100017.25
2024-05-09T11:08:09.071Z,100018.63
2024-05-09T11:09:11.444Z,100016.47
2024-05-09T11:10:17.821Z,100015.19
2024-05-09T11:11:25.270Z,100019.47
2024-05-09T11:12:30.311Z,100023.25
2024-05-09T11:13:38.531Z,100022.19
2024-05-09T11:14:51.682Z,100019.66
2024-05-09T11:15:54.194Z,100020.47
2024-05-09T11:17:09.680Z,100019.56
2024-05-09T11:18:24.931Z,100018.28
2024-05-09T11:19:32.268Z,100030.19
2024-05-09T11:20:35.712Z,100008.53
2024-05-09T11:21:38.975Z,99995.50
2024-05-09T11:22:41.743Z,100011.72
2024-05-09T11:23:44.318Z,100018.16
2024-05-09T11:24:47.745Z,100014.69
2024-05-09T11:25:57.334Z,100019.19
2024-05-09T11:27:03.466Z,100014.66
2024-05-09T11:28:06.368Z,100006.97
2024-05-09T11:29:08.618Z,100009.19
2024-05-09T11:30:34.102Z,99999.72
2024-05-09T11:31:46.326Z,99993.53
2024-05-09T11:32:49.839Z,100009.38
2024-05-09T11:33:53.387Z,99995.63
2024-05-09T11:34:56.771Z,99996.66
2024-05-09T11:35:59.027Z,99998.50
2024-05-09T11:37:01.197Z,99995.19
2024-05-09T11:38:04.119Z,100000.09
2024-05-09T11:39:06.614Z,99990.78
2024-05-09T11:40:16.838Z,99992.50
2024-05-09T11:41:23.491Z,99994.06
2024-05-09T11:42:29.276Z,99996.91
2024-05-09T11:43:32.046Z,99982.81
2024-05-09T11:44:34.383Z,99979.69
2024-05-09T11:45:46.013Z,99982.69
2024-05-09T11:46:51.684Z,99982.53
2024-05-09T11:47:54.173Z,99977.88
2024-05-09T11:48:56.703Z,99967.97
2024-05-09T11:50:01.238Z,99972.34
2024-05-09T11:51:04.143Z,99988.81
2024-05-09T11:52:06.412Z,99979.09
2024-05-09T11:53:08.691Z,99993.47
2024-05-09T11:54:14.984Z,99982.22
2024-05-09T11:55:17.615Z,99986.56
2024-05-09T11:56:21.085Z,99984.06
2024-05-09T11:57:26.880Z,99977.28
2024-05-09T11:58:33.164Z,99976.34
2024-05-09T11:59:36.321Z,99971.00
2024-05-09T12:00:38.594Z,99977.75
2024-05-09T12:01:41.279Z,99975.47
2024-05-09T12:02:43.753Z,99976.09
2024-05-09T12:03:49.604Z,99971.22
2024-05-09T12:04:52.088Z,99985.09
2024-05-09T12:05:54.321Z,99973.09
2024-05-09T12:06:56.763Z,99977.47
2024-05-09T12:07:59.725Z,99966.63
2024-05-09T12:09:01.986Z,99963.84
2024-05-09T12:10:11.953Z,99976.56
2024-05-09T12:11:19.607Z,99969.72
2024-05-09T12:12:21.644Z,99970.00
2024-05-09T12:13:24.130Z,99961.34
2024-05-09T12:14:26.524Z,99966.31
2024-05-09T12:15:28.997Z,99965.59
2024-05-09T12:16:34.931Z,99964.28
2024-05-09T12:17:37.928Z,99964.09
2024-05-09T12:18:40.355Z,99963.94
2024-05-09T12:19:42.806Z,99974.66
2024-05-09T12:20:44.913Z,99966.59
2024-05-09T12:22:13.230Z,99960.00
2024-05-09T12:23:19.713Z,99970.00
2024-05-09T12:24:23.907Z,99959.00
2024-05-09T12:25:26.290Z,99962.63
2024-05-09T12:26:29.092Z,99954.59
2024-05-09T12:27:36.078Z,99962.78
2024-05-09T12:28:39.739Z,99957.72
2024-05-09T12:29:42.081Z,99953.06
2024-05-09T12:30:44.546Z,99953.00
2024-05-09T12:31:47.806Z,99951.81
2024-05-09T12:32:50.398Z,99944.59
2024-05-09T12:33:56.744Z,99957.84
2024-05-09T12:34:59.727Z,99963.53
2024-05-09T12:36:01.988Z,99961.09
2024-05-09T12:37:32.223Z,99955.00
2024-05-09T12:38:34.874Z,99963.91
2024-05-09T12:39:37.196Z,99952.66
2024-05-09T12:40:42.487Z,99953.41
2024-05-09T12:41:44.897Z,99955.66
2024-05-09T12:42:47.191Z,99948.59
2024-05-09T12:43:49.489Z,99948.06
2024-05-09T12:44:51.779Z,99949.00
2024-05-09T12:45:54.270Z,99957.97
2024-05-09T12:46:56.594Z,99947.72
2024-05-09T12:47:59.841Z,99949.47
2024-05-09T12:49:02.565Z,99957.97
2024-05-09T12:50:08.318Z,99948.34
2024-05-09T12:51:15.801Z,99949.88
2024-05-09T12:52:23.216Z,99944.97
2024-05-09T12:53:25.555Z,99958.41